Startpagina
METAR-TAF:

METAR-TAF

Vliegvelden :

Puerto Maldonado, Peru

breedte: 12-38S, lengte: 069-12W, hoogte: 265 m

Actueel weer

Dit bericht is 37 minuten geleden gemaakt, om 19:00 UTC
Wind 6 kt uit het noordnoordwesten, variërend tussen het westen en het oostnoordoosten
Temperatuur 33°C
Vochtigheid 63%
Druk 1007 hPa
Zicht 10 km of meer
Verspreide wolken op 2200 ft

METAR: SPTU 241900Z 33006KT 260V060 9999 SCT022 33/25 Q1007 RMK BIRD HAZARD RWY 01/19 PP000

Tijdstip: 14:37 (19:37 UTC)

Verwachting

Dit bericht is 2 uur en het 37 minuten geleden gemaakt, om 17:00 UTC
Verwachting geldig van 24 om 18 UTC tot 25 om 18 UTC
Wind 4 kt uit het noordnoordwesten
Zicht 10 km of meer
Gebroken wolken op 2000 ft
Wijzigt naar
van 24 om 21 UTC tot 24 om 22 UTC
Zicht 10 km of meer
geen wolken onder 1500 m en geen cumulonimbus
Wijzigt naar
van 25 om 12 UTC tot 25 om 14 UTC
Gebroken wolken op 1500 ft

TAF: SPTU 241700Z 2418/2518 33004KT 9999 BKN020 TX33/2419Z TN23/2511Z BECMG 2421/2422 CAVOK BECMG 2512/2514 BKN015

Waarnemingen en weersverwachtingen van meer dan 4000 vliegvelden (METAR en TAF).

De beschikbare stations zijn de gele en rode punten op de kaart.

Ga met uw muis naar het station om de naam te zien.

Klik dan om waarnemingen en weersverwachtingen te zien.

kaart wijzigen: klik op de groene knoppen met een zwart kruis om in te zoomen, op de groene knop met een streepje om uit te zoomen of op de groene pijlen voor aangrenzende kaarten.


METAR-TAF: